Observation data for Levelland on 06/21/2019      Previous  Date       Current Mesonet Observations  Soil Data  Daily Summary Page  Observations in Plain Language
KLD1 210500Z 21010KT 24/01 A2981 RMK A01 T02420005  RH  021%=      5-min Rain = 0
KLD1 210505Z 21010KT 24/01 A298 RMK A01 T02390005  RH  022%=      5-min Rain = 0
KLD1 210510Z 22010KT 24/01 A298 RMK A01 T02370005  RH  022%=      5-min Rain = 0
KLD1 210515Z 21010KT 24/00 A298 RMK A01 T02370004  RH  022%=      5-min Rain = 0
KLD1 210520Z 21011KT 24/00 A298 RMK A01 T02390002  RH  021%=      5-min Rain = 0
KLD1 210525Z 21011KT 24/M00 A298 RMK A01 T02401001  RH  021%=      5-min Rain = 0
KLD1 210530Z 21010KT 24/M00 A298 RMK A01 T02401001  RH  021%=      5-min Rain = 0
KLD1 210535Z 21011KT 24/M00 A298 RMK A01 T02371002  RH  021%=      5-min Rain = 0
KLD1 210540Z 21012KT 24/M00 A298 RMK A01 T02371004  RH  020%=      5-min Rain = 0
KLD1 210545Z 21012KT 24/M01 A298 RMK A01 T02401008  RH  020%=      5-min Rain = 0
KLD1 210550Z 21012KT 24/M01 A298 RMK A01 T02421010  RH  019%=      5-min Rain = 0
KLD1 210555Z 21012KT 24/M01 A298 RMK A01 T02411012  RH  019%=      5-min Rain = 0
KLD1 210600Z 21012KT 24/M01 A298 RMK A01 T02421014  RH  018%=      5-min Rain = 0
KLD1 210605Z 21013KT 24/M02 A298 RMK A01 T02431015  RH  018%=      5-min Rain = 0
KLD1 210610Z 21013KT 24/M01 A298 RMK A01 T02411014  RH  019%=      5-min Rain = 0
KLD1 210615Z 21013KT 24/M01 A298 RMK A01 T02401014  RH  019%=      5-min Rain = 0
KLD1 210620Z 21013KT 24/M01 A298 RMK A01 T02371013  RH  019%=      5-min Rain = 0
KLD1 210625Z 22013KT 24/M01 A298 RMK A01 T02351012  RH  020%=      5-min Rain = 0
KLD1 210630Z 22013KT 23/M01 A298 RMK A01 T02331012  RH  020%=      5-min Rain = 0
KLD1 210635Z 21013KT 23/M01 A298 RMK A01 T02321014  RH  020%=      5-min Rain = 0
KLD1 210640Z 21012KT 23/M02 A298 RMK A01 T02331015  RH  019%=      5-min Rain = 0
KLD1 210645Z 21012G17KT 23/M02 A298 RMK A01 T02341016  RH  019%=      5-min Rain = 0
KLD1 210650Z 22013KT 24/M02 A298 RMK A01 T02351017  RH  019%=      5-min Rain = 0
KLD1 210655Z 22013KT 24/M02 A298 RMK A01 T02361018  RH  019%=      5-min Rain = 0
KLD1 210700Z 22013KT 24/M02 A298 RMK A01 T02351017  RH  019%=      5-min Rain = 0
KLD1 210705Z 22013KT 23/M02 A2979 RMK A01 T02321016  RH  019%=      5-min Rain = 0
KLD1 210710Z 22012KT 23/M02 A298 RMK A01 T02291016  RH  020%=      5-min Rain = 0
KLD1 210715Z 22010KT 23/M02 A2979 RMK A01 T02271016  RH  020%=      5-min Rain = 0
KLD1 210720Z 21012KT 23/M02 A2979 RMK A01 T02271017  RH  020%=      5-min Rain = 0
KLD1 210725Z 21012KT 23/M02 A2979 RMK A01 T02291018  RH  019%=      5-min Rain = 0
KLD1 210730Z 21011KT 23/M02 A2979 RMK A01 T02251017  RH  020%=      5-min Rain = 0
KLD1 210735Z 21011KT 23/M02 A2979 RMK A01 T02261018  RH  020%=      5-min Rain = 0
KLD1 210740Z 22012KT 23/M02 A2979 RMK A01 T02291017  RH  019%=      5-min Rain = 0
KLD1 210745Z 22011KT 23/M02 A2979 RMK A01 T02251016  RH  020%=      5-min Rain = 0
KLD1 210750Z 22011KT 22/M02 A2979 RMK A01 T02211016  RH  021%=      5-min Rain = 0
KLD1 210755Z 22012KT 22/M02 A2979 RMK A01 T02231018  RH  020%=      5-min Rain = 0
KLD1 210800Z 22012KT 22/M02 A2979 RMK A01 T02231017  RH  020%=      5-min Rain = 0
KLD1 210805Z 22012KT 22/M02 A2979 RMK A01 T02231017  RH  020%=      5-min Rain = 0
KLD1 210810Z 21012KT 22/M02 A2979 RMK A01 T02221016  RH  021%=      5-min Rain = 0
KLD1 210815Z 20013KT 22/M01 A298 RMK A01 T02181014  RH  021%=      5-min Rain = 0
KLD1 210820Z 18013KT 21/M01 A298 RMK A01 T02101012  RH  023%=      5-min Rain = 0
KLD1 210825Z 18013KT 21/M01 A298 RMK A01 T02081014  RH  023%=      5-min Rain = 0
KLD1 210830Z 19012KT 21/M01 A298 RMK A01 T02101013  RH  023%=      5-min Rain = 0
KLD1 210835Z 19014KT 21/M01 A298 RMK A01 T02131014  RH  022%=      5-min Rain = 0
KLD1 210840Z 19013KT 21/M01 A298 RMK A01 T02131013  RH  022%=      5-min Rain = 0
KLD1 210845Z 19012KT 21/M01 A298 RMK A01 T02121014  RH  022%=      5-min Rain = 0
KLD1 210850Z 19012KT 21/M01 A298 RMK A01 T02111014  RH  022%=      5-min Rain = 0
KLD1 210855Z 19012KT 21/M02 A298 RMK A01 T02091015  RH  022%=      5-min Rain = 0
KLD1 210900Z 19012KT 21/M02 A298 RMK A01 T02081016  RH  022%=      5-min Rain = 0
KLD1 210905Z 20012KT 21/M02 A298 RMK A01 T02081018  RH  022%=      5-min Rain = 0
KLD1 210910Z 20013KT 21/M02 A298 RMK A01 T02111020  RH  021%=      5-min Rain = 0
KLD1 210915Z 19013KT 21/M02 A298 RMK A01 T02101019  RH  022%=      5-min Rain = 0
KLD1 210920Z 19012KT 21/M02 A2981 RMK A01 T02071017  RH  022%=      5-min Rain = 0
KLD1 210925Z 19012KT 21/M02 A2981 RMK A01 T02061016  RH  023%=      5-min Rain = 0
KLD1 210930Z 19012KT 21/M01 A2981 RMK A01 T02051013  RH  023%=      5-min Rain = 0
KLD1 210935Z 19013KT 20/M01 A2981 RMK A01 T02041006  RH  025%=      5-min Rain = 0
KLD1 210940Z 19012KT 20/00 A2981 RMK A01 T02040003  RH  026%=      5-min Rain = 0
KLD1 210945Z 19013KT 20/01 A2981 RMK A01 T02020013  RH  029%=      5-min Rain = 0
KLD1 210950Z 20013KT 20/02 A2982 RMK A01 T02020024  RH  031%=      5-min Rain = 0
KLD1 210955Z 20014KT 20/04 A2982 RMK A01 T02030037  RH  034%=      5-min Rain = 0
KLD1 211000Z 20013KT 20/05 A2982 RMK A01 T02030052  RH  038%=      5-min Rain = 0
KLD1 211005Z 19014KT 20/07 A2982 RMK A01 T02030066  RH  042%=      5-min Rain = 0
KLD1 211010Z 20013KT 20/08 A2982 RMK A01 T02020076  RH  045%=      5-min Rain = 0
KLD1 211015Z 20013KT 20/09 A2982 RMK A01 T02040087  RH  048%=      5-min Rain = 0
KLD1 211020Z 20013KT 20/09 A2982 RMK A01 T02040094  RH  051%=      5-min Rain = 0
KLD1 211025Z 20013KT 21/10 A2982 RMK A01 T02060101  RH  053%=      5-min Rain = 0
KLD1 211030Z 20013KT 21/11 A2982 RMK A01 T02060105  RH  054%=      5-min Rain = 0
KLD1 211035Z 20013KT 21/11 A2983 RMK A01 T02050108  RH  056%=      5-min Rain = 0
KLD1 211040Z 20013KT 21/11 A2983 RMK A01 T02060111  RH  056%=      5-min Rain = 0
KLD1 211045Z 20013KT 21/11 A2983 RMK A01 T02070113  RH  057%=      5-min Rain = 0
KLD1 211050Z 21013KT 21/12 A2983 RMK A01 T02080115  RH  057%=      5-min Rain = 0
KLD1 211055Z 21012KT 21/12 A2983 RMK A01 T02080116  RH  058%=      5-min Rain = 0
KLD1 211100Z 21013KT 21/12 A2983 RMK A01 T02070116  RH  058%=      5-min Rain = 0
KLD1 211105Z 20014KT 21/12 A2984 RMK A01 T02070116  RH  058%=      5-min Rain = 0
KLD1 211110Z 20013KT 21/12 A2984 RMK A01 T02060117  RH  059%=      5-min Rain = 0
KLD1 211115Z 20012KT 20/12 A2984 RMK A01 T02040117  RH  060%=      5-min Rain = 0
KLD1 211120Z 20011KT 20/12 A2984 RMK A01 T02020118  RH  061%=      5-min Rain = 0
KLD1 211125Z 20010KT 20/12 A2984 RMK A01 T02000118  RH  061%=      5-min Rain = 0
KLD1 211130Z 20010KT 20/12 A2985 RMK A01 T01980118  RH  062%=      5-min Rain = 0
KLD1 211135Z 20011KT 20/12 A2985 RMK A01 T01960117  RH  063%=      5-min Rain = 0
KLD1 211140Z 21010KT 20/12 A2985 RMK A01 T01960117  RH  062%=      5-min Rain = 0
KLD1 211145Z 21010KT 20/12 A2985 RMK A01 T01970116  RH  062%=      5-min Rain = 0
KLD1 211150Z 20011KT 20/12 A2986 RMK A01 T01980115  RH  061%=      5-min Rain = 0
KLD1 211155Z 20010KT 20/12 A2986 RMK A01 T01970115  RH  061%=      5-min Rain = 0
KLD1 211200Z 20011KT 20/12 A2986 RMK A01 T01970115  RH  061%=      5-min Rain = 0
KLD1 211205Z 20010KT 20/12 A2986 RMK A01 T01980116  RH  061%=      5-min Rain = 0
KLD1 211210Z 20010KT 20/12 A2986 RMK A01 T01960116  RH  062%=      5-min Rain = 0
KLD1 211215Z 21010KT 20/12 A2986 RMK A01 T01970116  RH  062%=      5-min Rain = 0
KLD1 211220Z 22010KT 20/12 A2987 RMK A01 T01990116  RH  061%=      5-min Rain = 0
KLD1 211225Z 22010KT 20/12 A2987 RMK A01 T02010116  RH  060%=      5-min Rain = 0
KLD1 211230Z 23009KT 20/12 A2987 RMK A01 T02000116  RH  060%=      5-min Rain = 0
KLD1 211235Z 22010KT 20/12 A2987 RMK A01 T02010117  RH  061%=      5-min Rain = 0
KLD1 211240Z 22011KT 20/12 A2987 RMK A01 T02030118  RH  060%=      5-min Rain = 0
KLD1 211245Z 22010KT 21/12 A2987 RMK A01 T02060119  RH  060%=      5-min Rain = 0
KLD1 211250Z 23010KT 21/12 A2987 RMK A01 T02090120  RH  059%=      5-min Rain = 0
KLD1 211255Z 22010KT 21/12 A2987 RMK A01 T02130121  RH  058%=      5-min Rain = 0
KLD1 211300Z 22011KT 22/12 A2988 RMK A01 T02150121  RH  057%=      5-min Rain = 0
KLD1 211305Z 22012KT 22/12 A2988 RMK A01 T02170120  RH  056%=      5-min Rain = 0
KLD1 211310Z 23011KT 22/12 A2988 RMK A01 T02200121  RH  055%=      5-min Rain = 0
KLD1 211315Z 23012KT 22/12 A2988 RMK A01 T02220121  RH  055%=      5-min Rain = 0
KLD1 211320Z 23011KT 23/12 A2988 RMK A01 T02260121  RH  053%=      5-min Rain = 0
KLD1 211325Z 22011KT 23/12 A2988 RMK A01 T02300119  RH  051%=      5-min Rain = 0
KLD1 211330Z 22012KT 23/12 A2988 RMK A01 T02340116  RH  049%=      5-min Rain = 0
KLD1 211335Z 23011KT 24/11 A2988 RMK A01 T02380114  RH  047%=      5-min Rain = 0
KLD1 211340Z 23011KT 24/11 A2988 RMK A01 T02420111  RH  045%=      5-min Rain = 0
KLD1 211345Z 23011G16KT 25/11 A2989 RMK A01 T02450107  RH  043%=      5-min Rain = 0
KLD1 211350Z 24011KT 25/10 A2989 RMK A01 T02490104  RH  041%=      5-min Rain = 0
KLD1 211355Z 24011KT 25/10 A2989 RMK A01 T02540103  RH  040%=      5-min Rain = 0
KLD1 211400Z 23009KT 26/10 A2989 RMK A01 T02600101  RH  038%=      5-min Rain = 0
KLD1 211405Z 25009KT 27/10 A2989 RMK A01 T02660095  RH  035%=      5-min Rain = 0
KLD1 211410Z 25010KT 27/08 A2989 RMK A01 T02690084  RH  032%=      5-min Rain = 0
KLD1 211415Z 25010KT 27/08 A2989 RMK A01 T02730080  RH  031%=      5-min Rain = 0
KLD1 211420Z 25011KT 28/07 A2989 RMK A01 T02760070  RH  028%=      5-min Rain = 0
KLD1 211425Z 25009KT 28/07 A2989 RMK A01 T02800065  RH  026%=      5-min Rain = 0
KLD1 211430Z 24011KT 29/06 A2989 RMK A01 T02850055  RH  024%=      5-min Rain = 0
KLD1 211435Z 24012KT 29/05 A2989 RMK A01 T02860048  RH  022%=      5-min Rain = 0
KLD1 211440Z 23012KT 29/04 A2989 RMK A01 T02910043  RH  021%=      5-min Rain = 0
KLD1 211445Z 23011KT 29/04 A299 RMK A01 T02940041  RH  020%=      5-min Rain = 0
KLD1 211450Z 23012KT 30/04 A299 RMK A01 T02980035  RH  019%=      5-min Rain = 0
KLD1 211455Z 23011KT 30/04 A299 RMK A01 T03010036  RH  019%=      5-min Rain = 0
KLD1 211500Z 22010KT 30/03 A299 RMK A01 T03040034  RH  018%=      5-min Rain = 0
KLD1 211505Z 23011KT 31/03 A299 RMK A01 T03050029  RH  018%=      5-min Rain = 0
KLD1 211510Z 23011KT 31/02 A299 RMK A01 T03090021  RH  016%=      5-min Rain = 0
KLD1 211515Z 23010KT 31/02 A299 RMK A01 T03110017  RH  015%=      5-min Rain = 0
KLD1 211520Z 23009KT 31/01 A299 RMK A01 T03110013  RH  015%=      5-min Rain = 0
KLD1 211525Z 24008KT 31/01 A2989 RMK A01 T03140014  RH  015%=      5-min Rain = 0
KLD1 211530Z 25008KT 32/01 A2989 RMK A01 T03180010  RH  014%=      5-min Rain = 0
KLD1 211535Z 25008KT 32/01 A2989 RMK A01 T03220011  RH  014%=      5-min Rain = 0
KLD1 211540Z 27006KT 32/01 A2989 RMK A01 T03230006  RH  013%=      5-min Rain = 0
KLD1 211545Z 27007KT 32/M01 A2989 RMK A01 T03241011  RH  012%=      5-min Rain = 0
KLD1 211550Z 28008KT 32/M02 A2989 RMK A01 T03241018  RH  011%=      5-min Rain = 0
KLD1 211555Z 28007KT 33/M02 A2989 RMK A01 T03261019  RH  011%=      5-min Rain = 0
KLD1 211600Z 26007KT 33/M02 A2989 RMK A01 T03301015  RH  011%=      5-min Rain = 0
KLD1 211605Z 27006G11KT 33/M03 A2989 RMK A01 T03291025  RH  010%=      5-min Rain = 0
KLD1 211610Z 28007KT 33/M03 A2989 RMK A01 T03311032  RH  010%=      5-min Rain = 0
KLD1 211615Z 28006KT 33/M03 A2989 RMK A01 T03331033  RH  009%=      5-min Rain = 0
KLD1 211620Z 28007G12KT 34/M03 A2989 RMK A01 T03361032  RH  009%=      5-min Rain = 0
KLD1 211625Z 30005KT 33/M03 A2989 RMK A01 T03321033  RH  009%=      5-min Rain = 0
KLD1 211630Z 28005KT 33/M04 A2989 RMK A01 T03341041  RH  009%=      5-min Rain = 0
KLD1 211635Z 27005KT 34/M05 A2989 RMK A01 T03351049  RH  008%=      5-min Rain = 0
KLD1 211640Z 28005KT 34/M05 A2989 RMK A01 T03361045  RH  008%=      5-min Rain = 0
KLD1 211645Z 25004G9KT 34/M05 A2989 RMK A01 T03371050  RH  008%=      5-min Rain = 0
KLD1 211650Z 27007G13KT 35/M04 A2989 RMK A01 T03451040  RH  008%=      5-min Rain = 0
KLD1 211655Z 25005KT 34/M05 A2989 RMK A01 T03431045  RH  008%=      5-min Rain = 0
KLD1 211700Z 28004KT 34/M04 A2989 RMK A01 T03411042  RH  008%=      5-min Rain = 0
KLD1 211705Z 28007KT 34/M04 A2989 RMK A01 T03441044  RH  008%=      5-min Rain = 0
KLD1 211710Z 29005KT 35/M04 A2989 RMK A01 T03471040  RH  008%=      5-min Rain = 0
KLD1 211715Z 27005KT 35/M05 A2989 RMK A01 T03461046  RH  008%=      5-min Rain = 0
KLD1 211720Z 26005KT 35/M04 A2989 RMK A01 T03461044  RH  008%=      5-min Rain = 0
KLD1 211725Z 29005KT 35/M04 A2988 RMK A01 T03491042  RH  008%=      5-min Rain = 0
KLD1 211730Z 28006G11KT 35/M04 A2988 RMK A01 T03541037  RH  008%=      5-min Rain = 0
KLD1 211735Z 28008G13KT 36/M04 A2988 RMK A01 T03561039  RH  008%=      5-min Rain = 0
KLD1 211740Z 27009KT 36/M04 A2988 RMK A01 T03551039  RH  008%=      5-min Rain = 0
KLD1 211745Z 24006G11KT 36/M04 A2988 RMK A01 T03551039  RH  008%=      5-min Rain = 0
KLD1 211750Z 26005KT 36/M04 A2988 RMK A01 T03591037  RH  008%=      5-min Rain = 0
KLD1 211755Z 27006G12KT 36/M04 A2987 RMK A01 T03561039  RH  008%=      5-min Rain = 0
KLD1 211800Z 25008G13KT 35/M04 A2987 RMK A01 T03541042  RH  008%=      5-min Rain = 0
KLD1 211805Z 24009G15KT 36/M04 A2987 RMK A01 T03571040  RH  008%=      5-min Rain = 0
KLD1 211810Z 23009KT 36/M04 A2987 RMK A01 T03601043  RH  008%=      5-min Rain = 0
KLD1 211815Z 22005KT 35/M05 A2987 RMK A01 T03541045  RH  008%=      5-min Rain = 0
KLD1 211820Z 24004G13KT 36/M04 A2986 RMK A01 T03581041  RH  008%=      5-min Rain = 0
KLD1 211825Z 24011G16KT 37/M03 A2986 RMK A01 T03701034  RH  008%=      5-min Rain = 0
KLD1 211830Z 23008G13KT 36/M04 A2986 RMK A01 T03641039  RH  008%=      5-min Rain = 0
KLD1 211835Z 20011G18KT 37/M04 A2986 RMK A01 T03721037  RH  007%=      5-min Rain = 0
KLD1 211840Z 21010G16KT 37/M04 A2986 RMK A01 T03701040  RH  007%=      5-min Rain = 0
KLD1 211845Z 19008G14KT 37/M04 A2986 RMK A01 T03671039  RH  007%=      5-min Rain = 0
KLD1 211850Z 22008G14KT 36/M04 A2986 RMK A01 T03641040  RH  008%=      5-min Rain = 0
KLD1 211855Z 21008G14KT 37/M04 A2985 RMK A01 T03661039  RH  008%=      5-min Rain = 0
KLD1 211900Z 21009KT 38/M03 A2985 RMK A01 T03761034  RH  007%=      5-min Rain = 0
KLD1 211905Z 21014G22KT 38/M04 A2985 RMK A01 T03781036  RH  007%=      5-min Rain = 0
KLD1 211910Z 23012G17KT 38/M04 A2985 RMK A01 T03751036  RH  007%=      5-min Rain = 0
KLD1 211915Z 23009G15KT 37/M04 A2985 RMK A01 T03721036  RH  007%=      5-min Rain = 0
KLD1 211920Z 21013G23KT 38/M03 A2985 RMK A01 T03781027  RH  008%=      5-min Rain = 0
KLD1 211925Z 21013G23KT 38/M03 A2985 RMK A01 T03801028  RH  008%=      5-min Rain = 0
KLD1 211930Z 21016G21KT 38/M02 A2984 RMK A01 T03781024  RH  008%=      5-min Rain = 0
KLD1 211935Z 20010KT 37/M03 A2984 RMK A01 T03741030  RH  008%=      5-min Rain = 0
KLD1 211940Z 21013G19KT 38/M02 A2984 RMK A01 T03791021  RH  008%=      5-min Rain = 0
KLD1 211945Z 22016G24KT 38/M02 A2984 RMK A01 T03811017  RH  008%=      5-min Rain = 0
KLD1 211950Z 21015G22KT 38/M02 A2984 RMK A01 T03801017  RH  008%=      5-min Rain = 0
KLD1 211955Z 22015G21KT 38/M02 A2983 RMK A01 T03801018  RH  008%=      5-min Rain = 0
KLD1 212000Z 23017G22KT 38/M02 A2983 RMK A01 T03811019  RH  008%=      5-min Rain = 0
KLD1 212005Z 22013G22KT 38/M02 A2983 RMK A01 T03831015  RH  008%=      5-min Rain = 0
KLD1 212010Z 22019G30KT 38/M02 A2983 RMK A01 T03841016  RH  008%=      5-min Rain = 0
KLD1 212015Z 21015G20KT 38/M02 A2983 RMK A01 T03781016  RH  008%=      5-min Rain = 0
KLD1 212020Z 19016G21KT 38/M01 A2983 RMK A01 T03811013  RH  008%=      5-min Rain = 0
KLD1 212025Z 19017G23KT 38/M01 A2983 RMK A01 T03841014  RH  008%=      5-min Rain = 0
KLD1 212030Z 17011G18KT 38/M01 A2983 RMK A01 T03811014  RH  008%=      5-min Rain = 0
KLD1 212035Z 21021KT 39/M01 A2983 RMK A01 T03851008  RH  009%=      5-min Rain = 0
KLD1 212040Z 20015G21KT 38/M01 A2982 RMK A01 T03831009  RH  009%=      5-min Rain = 0
KLD1 212045Z 20015G23KT 38/M01 A2982 RMK A01 T03821008  RH  009%=      5-min Rain = 0
KLD1 212050Z 21019G29KT 38/M01 A2982 RMK A01 T03841008  RH  009%=      5-min Rain = 0
KLD1 212055Z 19016G24KT 38/M01 A2982 RMK A01 T03791010  RH  009%=      5-min Rain = 0
KLD1 212100Z 22014G23KT 38/M00 A2982 RMK A01 T03841004  RH  009%=      5-min Rain = 0
KLD1 212105Z 21018G25KT 39/M00 A2982 RMK A01 T03871004  RH  009%=      5-min Rain = 0
KLD1 212110Z 21018G25KT 39/M00 A2982 RMK A01 T03851002  RH  009%=      5-min Rain = 0
KLD1 212115Z 21017G25KT 39/M00 A2982 RMK A01 T03861004  RH  009%=      5-min Rain = 0
KLD1 212120Z 22013KT 38/M00 A2982 RMK A01 T03821003  RH  009%=      5-min Rain = 0
KLD1 212125Z 22020G25KT 38/M00 A2981 RMK A01 T03841003  RH  009%=      5-min Rain = 0
KLD1 212130Z 22018G25KT 38/M00 A2982 RMK A01 T03831003  RH  009%=      5-min Rain = 0
KLD1 212135Z 19018G28KT 39/M00 A2982 RMK A01 T03851001  RH  009%=      5-min Rain = 0
KLD1 212140Z 21018G23KT 39/M00 A2981 RMK A01 T03851001  RH  009%=      5-min Rain = 0
KLD1 212145Z 22016G24KT 39/M00 A2981 RMK A01 T03851002  RH  009%=      5-min Rain = 0
KLD1 212150Z 21017G22KT 38/M00 A2981 RMK A01 T03821003  RH  009%=      5-min Rain = 0
KLD1 212155Z 20019G28KT 38/M00 A2981 RMK A01 T03821002  RH  009%=      5-min Rain = 0
KLD1 212200Z 21018G25KT 38/M00 A2981 RMK A01 T03831002  RH  009%=      5-min Rain = 0
KLD1 212205Z 21016G24KT 38/M00 A2981 RMK A01 T03821002  RH  009%=      5-min Rain = 0
KLD1 212210Z 21019G27KT 38/M00 A298 RMK A01 T03821004  RH  009%=      5-min Rain = 0
KLD1 212215Z 20018G34KT 38/M00 A298 RMK A01 T03811002  RH  009%=      5-min Rain = 0
KLD1 212220Z 20015G21KT 38/M00 A298 RMK A01 T03801003  RH  009%=      5-min Rain = 0
KLD1 212225Z 20012KT 38/M00 A298 RMK A01 T03781003  RH  009%=      5-min Rain = 0
KLD1 212230Z 22015G21KT 38/M00 A298 RMK A01 T03801001  RH  009%=      5-min Rain = 0
KLD1 212235Z 21014G20KT 38/M00 A298 RMK A01 T03791002  RH  009%=      5-min Rain = 0
KLD1 212240Z 20020G26KT 38/M00 A2979 RMK A01 T03831001  RH  009%=      5-min Rain = 0
KLD1 212245Z 20021G26KT 39/M00 A2979 RMK A01 T03861001  RH  009%=      5-min Rain = 0
KLD1 212250Z 20020G25KT 38/M00 A2979 RMK A01 T03821003  RH  009%=      5-min Rain = 0
KLD1 212255Z 20016G22KT 38/M00 A2979 RMK A01 T03811003  RH  009%=      5-min Rain = 0
KLD1 212300Z 19015G22KT 38/M00 A2979 RMK A01 T03821001  RH  009%=      5-min Rain = 0
KLD1 212305Z 19017G22KT 38/M00 A2979 RMK A01 T03821001  RH  009%=      5-min Rain = 0
KLD1 212310Z 20018G27KT 38/M00 A2978 RMK A01 T03811001  RH  009%=      5-min Rain = 0
KLD1 212315Z 21018G24KT 38/M00 A2978 RMK A01 T03811002  RH  009%=      5-min Rain = 0
KLD1 212320Z 20015G21KT 38/00 A2978 RMK A01 T03810000  RH  009%=      5-min Rain = 0
KLD1 212325Z 21017G24KT 38/00 A2978 RMK A01 T03800000  RH  009%=      5-min Rain = 0
KLD1 212330Z 21020G26KT 38/M00 A2977 RMK A01 T03791001  RH  009%=      5-min Rain = 0
KLD1 212335Z 21019G25KT 38/00 A2977 RMK A01 T03790000  RH  009%=      5-min Rain = 0
KLD1 212340Z 21017G22KT 38/00 A2977 RMK A01 T03770001  RH  010%=      5-min Rain = 0
KLD1 212345Z 20019G24KT 38/00 A2977 RMK A01 T038000-0  RH  009%=      5-min Rain = 0
KLD1 212350Z 21019G25KT 38/M00 A2977 RMK A01 T03781001  RH  009%=      5-min Rain = 0
KLD1 212355Z 20019G25KT 38/00 A2977 RMK A01 T037700-0  RH  009%=      5-min Rain = 0
KLD1 220000Z 20016G21KT 38/00 A2977 RMK A01 T03760000  RH  010%=      5-min Rain = 0
KLD1 220005Z 20017G25KT 38/00 A2977 RMK A01 T03760000  RH  010%=      5-min Rain = 0
KLD1 220010Z 20020G26KT 37/00 A2976 RMK A01 T03740001  RH  010%=      5-min Rain = 0
KLD1 220015Z 21018G24KT 37/00 A2977 RMK A01 T03740001  RH  010%=      5-min Rain = 0
KLD1 220020Z 21015KT 37/00 A2977 RMK A01 T03730002  RH  010%=      5-min Rain = 0
KLD1 220025Z 21014G22KT 37/00 A2977 RMK A01 T03730003  RH  010%=      5-min Rain = 0
KLD1 220030Z 21019KT 37/00 A2977 RMK A01 T03710000  RH  010%=      5-min Rain = 0
KLD1 220035Z 20018G24KT 37/00 A2977 RMK A01 T036900-0  RH  010%=      5-min Rain = 0
KLD1 220040Z 21018G23KT 37/M00 A2977 RMK A01 T03681001  RH  010%=      5-min Rain = 0
KLD1 220045Z 21017KT 37/M00 A2977 RMK A01 T03661001  RH  010%=      5-min Rain = 0
KLD1 220050Z 21015KT 37/00 A2977 RMK A01 T036500-0  RH  010%=      5-min Rain = 0
KLD1 220055Z 20014KT 36/00 A2977 RMK A01 T03640000  RH  010%=      5-min Rain = 0
KLD1 220100Z 21011KT 36/00 A2977 RMK A01 T03620002  RH  010%=      5-min Rain = 0
KLD1 220105Z 20012KT 36/00 A2977 RMK A01 T03600002  RH  011%=      5-min Rain = 0
KLD1 220110Z 21008KT 36/01 A2977 RMK A01 T03580007  RH  011%=      5-min Rain = 0
KLD1 220115Z 20010KT 36/01 A2977 RMK A01 T03560008  RH  011%=      5-min Rain = 0
KLD1 220120Z 19011KT 35/01 A2976 RMK A01 T03540006  RH  011%=      5-min Rain = 0
KLD1 220125Z 20009KT 35/01 A2976 RMK A01 T03510008  RH  012%=      5-min Rain = 0
KLD1 220130Z 21007KT 35/01 A2976 RMK A01 T03460013  RH  012%=      5-min Rain = 0
KLD1 220135Z 21007KT 34/02 A2976 RMK A01 T03410015  RH  013%=      5-min Rain = 0
KLD1 220140Z 21007KT 34/02 A2976 RMK A01 T03370016  RH  013%=      5-min Rain = 0
KLD1 220145Z 19008KT 33/02 A2977 RMK A01 T03340015  RH  013%=      5-min Rain = 0
KLD1 220150Z 19010KT 33/02 A2977 RMK A01 T03330017  RH  014%=      5-min Rain = 0
KLD1 220155Z 20011KT 33/02 A2978 RMK A01 T03300018  RH  014%=      5-min Rain = 0
KLD1 220200Z 19009KT 33/02 A2978 RMK A01 T03280020  RH  014%=      5-min Rain = 0
KLD1 220205Z 19009KT 32/02 A2979 RMK A01 T03220022  RH  015%=      5-min Rain = 0
KLD1 220210Z 19008KT 32/02 A2979 RMK A01 T03150024  RH  016%=      5-min Rain = 0
KLD1 220215Z 18008KT 31/03 A2979 RMK A01 T03070026  RH  017%=      5-min Rain = 0
KLD1 220220Z 18009KT 31/03 A298 RMK A01 T03050027  RH  017%=      5-min Rain = 0
KLD1 220225Z 19011KT 31/03 A298 RMK A01 T03060030  RH  018%=      5-min Rain = 0
KLD1 220230Z 19011KT 31/03 A298 RMK A01 T03060031  RH  018%=      5-min Rain = 0
KLD1 220235Z 19011KT 31/03 A298 RMK A01 T03060031  RH  018%=      5-min Rain = 0
KLD1 220240Z 19012KT 31/03 A2981 RMK A01 T03100031  RH  017%=      5-min Rain = 0
KLD1 220245Z 20011KT 31/03 A2981 RMK A01 T03120031  RH  017%=      5-min Rain = 0
KLD1 220250Z 19012KT 31/03 A2982 RMK A01 T03120030  RH  017%=      5-min Rain = 0
KLD1 220255Z 16015G21KT 31/04 A2983 RMK A01 T03090043  RH  019%=      5-min Rain = 0
KLD1 220300Z 17015G21KT 31/07 A2983 RMK A01 T03110073  RH  023%=      5-min Rain = 0
KLD1 220305Z 17018G25KT 31/11 A2983 RMK A01 T03100105  RH  029%=      5-min Rain = 0
KLD1 220310Z 17023G30KT 31/13 A2983 RMK A01 T03130126  RH  033%=      5-min Rain = 0
KLD1 220315Z 16021G29KT 31/13 A2983 RMK A01 T03120132  RH  035%=      5-min Rain = 0
KLD1 220320Z 16022G30KT 31/13 A2983 RMK A01 T03100133  RH  035%=      5-min Rain = 0
KLD1 220325Z 16020G26KT 31/12 A2983 RMK A01 T03080117  RH  032%=      5-min Rain = 0
KLD1 220330Z 16021G28KT 31/12 A2983 RMK A01 T03060117  RH  032%=      5-min Rain = 0
KLD1 220335Z 16022KT 31/12 A2983 RMK A01 T03050122  RH  034%=      5-min Rain = 0
KLD1 220340Z 16018G26KT 30/13 A2984 RMK A01 T03020126  RH  035%=      5-min Rain = 0
KLD1 220345Z 14016KT 29/11 A2984 RMK A01 T02940114  RH  034%=      5-min Rain = 0
KLD1 220350Z 15016G21KT 29/11 A2985 RMK A01 T02900111  RH  034%=      5-min Rain = 0
KLD1 220355Z 15015G21KT 29/11 A2985 RMK A01 T02900111  RH  034%=      5-min Rain = 0
KLD1 220400Z 15016KT 29/11 A2985 RMK A01 T02890113  RH  035%=      5-min Rain = 0
KLD1 220405Z 15017KT 29/12 A2986 RMK A01 T02880117  RH  036%=      5-min Rain = 0
KLD1 220410Z 15018G23KT 29/12 A2986 RMK A01 T02890124  RH  037%=      5-min Rain = 0
KLD1 220415Z 16017G22KT 29/13 A2986 RMK A01 T02880127  RH  039%=      5-min Rain = 0
KLD1 220420Z 16017KT 29/13 A2986 RMK A01 T02860130  RH  040%=      5-min Rain = 0
KLD1 220425Z 15017KT 29/13 A2985 RMK A01 T02850132  RH  041%=      5-min Rain = 0
KLD1 220430Z 16015KT 28/13 A2985 RMK A01 T02830134  RH  042%=      5-min Rain = 0
KLD1 220435Z 16015KT 28/14 A2985 RMK A01 T02820141  RH  044%=      5-min Rain = 0
KLD1 220440Z 16016KT 28/15 A2985 RMK A01 T02820148  RH  046%=      5-min Rain = 0
KLD1 220445Z 17017G22KT 28/16 A2985 RMK A01 T02830156  RH  048%=      5-min Rain = 0
KLD1 220450Z 17018G23KT 28/16 A2985 RMK A01 T02830160  RH  049%=      5-min Rain = 0
KLD1 220455Z 18018G23KT 28/16 A2986 RMK A01 T02830162  RH  050%=      5-min Rain = 0

Page generated in 0.0127 seconds.